Timeline UpdatesTrip UpdatesNews PostsPvt PostsTravel TipsAdmin PostsConv PostsFollowed PostsChat RequestsBlog PostsPNR Posts

Disclaimer
Search
 
 
Thu Aug 28, 2014 18:35:32 ISTHomeTrainsΣChainsAtlasPNRForumGalleryNewsFAQTripsMembersLoginFeedback
No Recent News for this Train
Other Trains in the News **new
Latest...
.
Tue Dec 31, 2013 (01:14PM)
⇐ Return Journey: Train# 11015

11016/Kushinagar Express

Dec 31 2013 (1:14PM)
Change Departure Station:
Change Arrival Station:
Post a Train Travel TipPost a Train Travel Tip **new
Post a Comment/Question/Picture/VideoPost a Comment/Question/Picture/Video
Pantry/Catering
✓ Pantry Car Avbl
✓ Catering Avbl
RSA - Rake Sharing
No RSA.
Rake/Coach Composition
Loco-SLR-GEN-S1-S2-S3-S4-S5-S6-S7-S8-S9-S10-S11-S12-PC-S13-S14-A1-B1-B2-GEN-GEN-SLR
Loco
(GKP-JHS) GD-WDM-3A (JHS-LTT) BSL-WAP-4 Entry# 970760
News    PNR    Forum    Time-Table    Availability    Fare Chart    Map    Arr/Dep History    Trips    Gallery    ΣChains    X/O    Timeline    
Travel Time: 3h 20m    3 halts    Distance: 183 km    Avg Speed: 54 km/hr
Type: Mail/Express
Zone: CR/Central
Departs @ 13:55 (Avg 2h 5m late)
Platform# 2
SMTWTFS
Itarsi Junction/ET 
Arrives @ 17:15 (Avg 1h 22m late)
Platform# 1
SMTWTFS
Khandwa Junction/KNW 

3 halts. 25 intermediate Stations between Itarsi Junction and Khandwa Junction

Show ALL intermediate Stations  Show Old Time-Table

#CodeStation NameX/OArrivesAvgDepartsAvgHaltPFDay#KmSpeedElevZoneAddress
1GKPGorakhpur Junction (10)  -19:00+421-945.55784mNERGorakhpur 273001, Uttar Pradesh
2KLDKhalilabad (3)X  19:36+1619:38+172m11-911.65586mNERKhalilabad- 272175, Uttar Pradesh
3BSTBasti (4)X  20:10+1520:15+175m11-882.18090mNERBasti 272001, Uttar Pradesh
4BVBabhnan (2)  20:38+2320:40+252m11-851.356101mNERDistrict- Basti, Uttar Pradesh
5MURMankapur Junction (5)  21:12+1921:14+192m21-821.564104mNERDistrict Gonda, Uttar Pradesh
6GDGonda Junction (3)X  21:40+2021:45+215m11-793.652110mNERGonda 271001, Uttar Pradesh
7BBKBarabanki Junction (4)X  23:28+1523:30+182m21-704.331122mNRPin-225001, Uttar Pradesh
8LKOLucknow Charbagh (9)X  00:25+2100:40+1915m42-675.861123mNR226004, Uttar Pradesh
9ONUnnao Junction (5)XO  01:34+1801:36+192m--2-621.227129mNRUnnao, Uttar Pradesh
10CNBKanpur Central (10)  02:15+2002:25+2610m42-603.833128mNCRKANPUR-208 001, Uttar Pradesh
11BZMBhimsen (1)  02:51+3702:53+412m12-589.772136mNCRKanpur, Uttar Pradesh
12PHNPokhrayan (2)  03:30+4403:32+442m12-545.360133mNCRPukhrayan, Uttar Pradesh
13KPIKalpi  03:47+4803:49+502m12-530.279114mNCRKalpi Orai(05162-252206), Uttar Pradesh
14ORAIOrai (3)  04:14+1:0104:21+1:017m22-497.582139mNCROrai(05162-252206), Uttar Pradesh
15AITAit Junction (2)X  04:39+1:0804:41+1:102m12-472.961154mNCROrai(05162-252206), Uttar Pradesh
16CGNChirgaonX  05:38+1:1905:40+1:222m12-415.322192mNCRChirgaon, Uttar Pradesh
17JHSJhansi Junction (7)07:05+4807:15+1:0110m12-383.555259mNCRJhansi, Uttar Pradesh
18BABBabina (3)  07:43+1:0507:45+1:052m12-358.086285mNCRBabina, Uttar Pradesh
19LARLalitpur (3)  08:30+1:0908:32+1:092m12-293.252373mNCRLalitpur, Uttar Pradesh
20BINABina Junction (4)X  09:45+1:0509:50+1:085m42-230.386414mWCRJn Pt - KATNI/GUNA/ BPL/JHS, Madhya Pradesh
21BAQGanj Basoda (4)  10:22+1:2610:24+1:362m22-184.584 WCRVidisha, Madhya Pradesh
22BHSVidisha (3)X  10:52+1:5110:54+1:522m22-145.249 WCRVidisha, Madhya Pradesh
23BPLBhopal Junction (6)X  12:00+1:4512:05+1:545m12-91.738497mWCRBhopal, Madhya Pradesh
24HBJBhopal HabibGanj (5)  12:15+1:4912:17+1:502m42-85.564496mWCRHabibGanj, Madhya Pradesh
25MDDPMandi Dip (1)  12:32+1:5412:34+1:542m12-69.464 WCRMandideep, Madhya Pradesh
26HBDHoshangabad (2)  13:22+2:0713:24+2:072m--2-18.142308mWCRHoshangabad, Madhya Pradesh
27ET»Itarsi Junction (7)»  13:50+1:5913:55+2:055m220.064329mWCRItarsi 461111, Madhya Pradesh
28TBNTimarni (2)  14:53+2:0414:55+2:042m1261.761308mWCRTimarni, Madhya Pradesh
29HDHarda (3)  15:09+2:0015:10+2:001m3275.886289mWCRHarda, Madhya Pradesh
30KKNKhirkiya (2)X  15:32+2:0715:34+2:072m12107.345281mWCRSH 15, Madhya Pradesh
31KNW•Khandwa Junction (5)•X  17:15+1:2217:20+1:235m12183.478310mCRKhandwa, Madhya Pradesh
32NPNRNepanagar (2)  17:53+1:2517:55+1:272m--2226.168289mCRState Highway 27, Madhya Pradesh
33BAUBurhanpur (2)X  18:18+1:3118:20+1:322m12252.376269mCRBurhanpur, Madhya Pradesh
34RVRaver (2)X  18:36+1:3118:38+1:322m--2272.564242mCRJalgaon, Maharashtra
35BSLBhusaval Junction (8)X  19:10+1:3719:20+1:4010m32306.863208mCRBhusaval 425201, Maharashtra
36JLJalgaon Junction (4)X  19:43+1:4019:45+1:412m22330.992213mCRJalgaon 425001, Maharashtra
37PCPachora Junction (4)X  20:16+1:5820:18+2:002m--2378.654264mCRPachora 424201, Maharashtra
38CSNChalisgaon Junction (3)XO  21:08+1:5021:10+1:542m--2423.559352mCRChalisgaon 424101, Maharashtra
39NGNNandgaon (3)  21:53+1:4521:55+1:472m--2465.676476mCRNandgaon, Maharashtra
40MMRManmad Junction (6)XO  22:15+1:5722:20+2:005m32491.079580mCRManmad 423104, Maharashtra
41NKNasik Road (3)X  23:15+1:5423:20+1:525m32563.843563mCRNashik 422101, Maharashtra
42DVLDevlali (3)X  23:28+1:5723:30+1:572m22569.526561mCRDist. Nashik 422401, Maharashtra
43IGPIgatpuri (4)X  01:15+1:0001:20+1:085m--3614.445589mCRIgatpuri 422403, Maharashtra
44KYNKalyan Junction (8)O  03:10+1:0503:15+1:025m53696.26710mCRKalyan 421301, Maharashtra
45TNAThane (10)O  03:33+5403:35+542m83716.42210mCRThane (West) 400602, Maharashtra
46LTTMumbai Lokmanya Tilak Terminus (5)  04:20+53-53732.9-7mCRMumbai - 400089, Maharashtra
Scroll to Top
Scroll to Bottom